Flight Track Log - Related Links

Times and Time Zones

All times are in EDT time to prevent confusion due to time zone crossing. See the N789EX flight status page for this flight to view local times or setup timezone preferences in your user account.

Time Position Orientation Groundspeed Altitude Reporting Facility
EDT Latitude Longitude Course Direction KTS MPH feet Rate Location/Type
Wed 01:04:11 PM 47.3515 -119.9620 295° West 310 357 17,700  Level FlightAware ADS-B
Wed 01:04:41 PM 47.3693 -120.0190 295° West 310 357 19,000 2,377 Climbing FlightAware ADS-B
Wed 01:05:04 PM 47.3837 -120.0650 295° West 318 366 19,800 1,111 Climbing FlightAware ADS-B
Wed 01:05:35 PM 47.4038 -120.1270 295° West 343 395 20,000 197 Climbing FlightAware ADS-B
Wed 01:06:05 PM 47.4252 -120.1950 295° West 378 435 20,000  Level FlightAware ADS-B
Wed 01:06:35 PM 47.4480 -120.2680 295° West 400 460 20,000  Level FlightAware ADS-B
Wed 01:07:06 PM 47.4717 -120.3440 295° West 399 459 20,000  Level FlightAware ADS-B
Wed 01:08:02 PM 47.5154 -120.4830 295° West 400 460 20,000  Level FlightAware ADS-B
Wed 01:08:32 PM 47.5390 -120.5590 295° West 405 466 20,000  Level FlightAware ADS-B
Wed 01:09:14 PM 47.5712 -120.6630 295° West 404 465 20,000  Level FlightAware ADS-B
Wed 01:09:44 PM 47.5948 -120.7390 295° West 406 467 20,000  Level FlightAware ADS-B
Wed 01:10:14 PM 47.6182 -120.8150 295° West 407 468 20,000  Level FlightAware ADS-B
Wed 01:10:44 PM 47.6416 -120.8920 294° West 406 467 20,000  Level FlightAware ADS-B
Wed 01:11:14 PM 47.6652 -120.9690 294° West 404 465 20,000  Level FlightAware ADS-B
Wed 01:11:30 PM 47.6769 -121.0070 293° West 401 461 20,000  Level FlightAware ADS-B
Wed 01:11:36 PM 47.6812 -121.0240 290° West 401 461 20,000  Level FlightAware ADS-B
Wed 01:11:41 PM 47.6834 -121.0350 285° West 402 463 20,000 -800 Level FlightAware ADS-B
Wed 01:11:51 PM 47.6873 -121.0630 279° West 405 466 19,800 -2,100 Descending FlightAware ADS-B
Wed 01:12:21 PM 47.6941 -121.1460 277° West 403 464 18,600 -2,471 Descending FlightAware ADS-B
Wed 01:12:25 PM 47.6949 -121.1560 277° West 401 461 18,400 -2,129 Descending FlightAware ADS-B
Wed 01:12:52 PM 47.7014 -121.2290 278° West 390 449 17,500 -3,310 Descending FlightAware ADS-B
Wed 01:13:23 PM 47.7094 -121.3080 279° West 376 433 15,200 -4,721 Descending FlightAware ADS-B
Wed 01:13:53 PM 47.7184 -121.3850 280° West 372 428 12,700 -4,667 Descending FlightAware ADS-B
Wed 01:13:59 PM 47.7199 -121.3983 280° West 369 425 12,400 -4,000 Descending FlightAware ADS-B (CYVR)
Wed 01:14:23 PM 47.7272 -121.4600 280° West 372 428 10,700 -3,349 Descending FlightAware ADS-B
Wed 01:14:42 PM 47.7329 -121.5060 281° West 369 425 10,000 -1,412 Descending FlightAware ADS-B
Wed 01:14:57 PM 47.7376 -121.5420 281° West 354 407 9,900 -200 Descending FlightAware ADS-B
Wed 01:15:12 PM 47.7422 -121.5770 281° West 324 373 9,900  Level FlightAware ADS-B
Wed 01:15:27 PM 47.7464 -121.6080 281° West 293 337 9,900  Level FlightAware ADS-B
Wed 01:15:42 PM 47.7502 -121.6370 281° West 276 318 9,900  Level FlightAware ADS-B
Wed 01:15:58 PM 47.7542 -121.6660 281° West 267 307 9,900  Level FlightAware ADS-B
Wed 01:16:05 PM 47.7558 -121.6775 280° West 369 425 9,900 -375 Level FlightAware ADS-B (CYVR)
Wed 01:16:14 PM 47.7579 -121.6930 281° West 266 306 9,800 -1,000 Descending FlightAware ADS-B
Wed 01:16:29 PM 47.7615 -121.7200 281° West 262 302 9,500 -1,862 Descending FlightAware ADS-B
Wed 01:16:43 PM 47.7649 -121.7460 281° West 263 303 8,900 -2,200 Descending FlightAware ADS-B
Wed 01:16:59 PM 47.7685 -121.7740 281° West 263 303 8,400 -1,935 Descending FlightAware ADS-B
Wed 01:17:14 PM 47.7720 -121.8010 281° West 262 302 7,900 -1,800 Descending FlightAware ADS-B
Wed 01:17:19 PM 47.7726 -121.8057 281° West 262 302 7,800 -2,000 Descending FlightAware ADS-B (CYVR)
Wed 01:17:23 PM 47.7740 -121.8160 282° West 261 300 7,600 -1,667 Descending FlightAware ADS-B
Wed 01:17:37 PM 47.7775 -121.8400 283° West 263 303 7,300 -1,448 Descending FlightAware ADS-B
Wed 01:17:52 PM 47.7819 -121.8670 284° West 255 293 6,900 -2,087 Descending FlightAware ADS-B
Wed 01:18:00 PM 47.7837 -121.8800 279° West 252 290 6,500 -2,500 Descending FlightAware ADS-B
Wed 01:18:04 PM 47.7842 -121.8860 274° West 251 289 6,400 -2,250 Descending FlightAware ADS-B
Wed 01:18:08 PM 47.7842 -121.8940 269° West 249 287 6,200 -2,400 Descending FlightAware ADS-B
Wed 01:18:14 PM 47.7837 -121.9030 264° West 247 284 6,000 -2,308 Descending FlightAware ADS-B
Wed 01:18:21 PM 47.7826 -121.9160 262° West 247 284 5,700 -2,609 Descending FlightAware ADS-B
Wed 01:18:37 PM 47.7797 -121.9420 260° West 249 287 5,000 -2,438 Descending FlightAware ADS-B
Wed 01:18:53 PM 47.7766 -121.9690 260° West 248 285 4,400 -2,323 Descending FlightAware ADS-B
Wed 01:19:08 PM 47.7735 -121.9950 260° West 244 281 3,800 -2,000 Descending FlightAware ADS-B
Wed 01:19:23 PM 47.7708 -122.0200 261° West 238 274 3,400 -968 Descending FlightAware ADS-B
Wed 01:19:39 PM 47.7681 -122.0450 262° West 233 268 3,300 -727 Descending FlightAware ADS-B
Wed 01:19:56 PM 47.7656 -122.0710 262° West 229 264 3,000 -750 Descending FlightAware ADS-B
Wed 01:20:11 PM 47.7633 -122.0950 262° West 227 261 2,900 -182 Descending FlightAware ADS-B
Wed 01:20:29 PM 47.7606 -122.1220 262° West 229 264 2,900  Level FlightAware ADS-B
Wed 01:20:46 PM 47.7580 -122.1490 262° West 229 264 2,900  Level FlightAware ADS-B
Wed 01:21:01 PM 47.7558 -122.1730 262° West 231 266 2,900  Level FlightAware ADS-B
Wed 01:21:17 PM 47.7534 -122.1980 262° West 229 264 2,900  Level FlightAware ADS-B
Wed 01:21:33 PM 47.7511 -122.2220 262° West 230 265 2,900  Level FlightAware ADS-B
Wed 01:21:55 PM 47.7477 -122.2570 262° West 231 266 2,900  Level FlightAware ADS-B
Wed 01:22:11 PM 47.7451 -122.2820 261° West 230 265 2,900  Level FlightAware ADS-B
Wed 01:22:27 PM 47.7430 -122.3060 262° West 231 266 2,900  Level FlightAware ADS-B
Wed 01:22:43 PM 47.7408 -122.3290 262° West 203 234 2,900  Level FlightAware ADS-B
Wed 01:22:59 PM 47.7388 -122.3500 262° West 199 229 2,900  Level FlightAware ADS-B
Wed 01:23:16 PM 47.7369 -122.3720 263° West 180 207 2,900 -364 Level FlightAware ADS-B
Wed 01:23:32 PM 47.7354 -122.3910 263° West 176 203 2,700 -289 Descending FlightAware ADS-B
Wed 01:26:02 PM 47.6653 -122.4170 150° Southeast 147 169 2,100 -226 Descending FlightAware ADS-B
Wed 01:26:11 PM 47.6595 -122.4120 150° Southeast 149 171 2,100  Level FlightAware ADS-B
Wed 01:26:32 PM 47.6472 -122.4020 150° Southeast 149 171 2,100  Level FlightAware ADS-B
Wed 01:26:42 PM 47.6411 -122.3960 149° Southeast 150 173 2,100  Level FlightAware ADS-B
Wed 01:26:52 PM 47.6356 -122.3920 150° Southeast 148 170 2,100 -273 Level FlightAware ADS-B
Wed 01:27:04 PM 47.6280 -122.3850 150° Southeast 152 175 2,000 -571 Descending FlightAware ADS-B
Wed 01:27:13 PM 47.6228 -122.3810 151° Southeast 153 176 1,900 -1,000 Descending FlightAware ADS-B
Wed 01:27:40 PM 47.6059 -122.3670 150° Southeast 153 176 1,400 -769 Descending FlightAware ADS-B
Wed 01:28:31 PM 47.5769 -122.3436 150° Southeast 153 176 900 -761 Descending Seattle Center
Wed 01:28:51 PM 47.5633 -122.3311 148° Southeast 150 173 500 -627 Descending Seattle Center
Wed 01:29:38 PM 47.5417 -122.3008 137° Southeast 159 183 200 -383 Descending Seattle Center

Login

Don't have an account? Register now (free) for customized features, flight alerts, and more!